Time;durP1;ratioP1;P1;durP2;ratioP2;P2;SDS_P1;SDS_P2;PMS_P1;PMS_P2;Temp;Humidity;BMP_temperature;BMP_pressure;BME280_temperature;BME280_humidity;BME280_pressure;Samples;Min_cycle;Max_cycle;Signal;HPM_P1;HPM_P2
2020/12/06 00:00:29;;;;;;;;;;;5.70;81.60;;;;;;4960935;28;20425;-46
2020/12/06 00:02:57;;;;;;;;;;;5.70;81.60;;;;;;4961650;28;19968;-46
2020/12/06 00:05:24;;;;;;;;;;;5.70;81.70;;;;;;4963631;28;20151;-45
2020/12/06 00:07:51;;;;;;;;;;;5.70;81.90;;;;;;4960423;28;19930;-46
2020/12/06 00:10:18;;;;;;;;;;;5.70;82.00;;;;;;4973617;28;19961;-46
2020/12/06 00:12:46;;;;;;;;;;;5.70;82.00;;;;;;4956512;28;20016;-44
2020/12/06 00:15:16;;;;;;;;;;;5.70;82.10;;;;;;4962893;28;19946;-45
2020/12/06 00:17:43;;;;;;;;;;;5.80;82.10;;;;;;4973893;28;19940;-46
2020/12/06 00:20:11;;;;;;;;;;;5.80;82.10;;;;;;4964438;28;20005;-44
2020/12/06 00:22:38;;;;;;;;;;;5.80;82.00;;;;;;4972429;28;19929;-46
2020/12/06 00:25:06;;;;;;;;;;;5.80;81.90;;;;;;4971281;28;19953;-44
2020/12/06 00:27:34;;;;;;;;;;;5.80;82.10;;;;;;4954939;28;20503;-46
2020/12/06 00:30:04;;;;;;;;;;;5.80;82.10;;;;;;4967652;28;20394;-43
2020/12/06 00:32:31;;;;;;;;;;;5.80;82.10;;;;;;4962273;28;19934;-44
2020/12/06 00:34:59;;;;;;;;;;;5.80;82.10;;;;;;4966893;28;19936;-45
2020/12/06 00:37:27;;;;;;;;;;;5.80;82.10;;;;;;4966304;28;19933;-45
2020/12/06 00:39:54;;;;;;;;;;;5.80;82.10;;;;;;4956498;28;20286;-47
2020/12/06 00:42:22;;;;;;;;;;;5.80;82.10;;;;;;4959136;28;20623;-43
2020/12/06 00:44:50;;;;;;;;;;;5.80;82.20;;;;;;4962184;28;19953;-46
2020/12/06 00:47:18;;;;;;;;;;;5.80;82.30;;;;;;4957455;28;19934;-43
2020/12/06 00:49:45;;;;;;;;;;;5.80;82.40;;;;;;4970747;28;19961;-44
2020/12/06 00:52:12;;;;;;;;;;;5.80;82.40;;;;;;4952546;28;19969;-45
2020/12/06 00:54:40;;;;;;;;;;;5.80;82.50;;;;;;4957429;28;19931;-46
2020/12/06 00:57:08;;;;;;;;;;;5.80;82.50;;;;;;4963139;28;19933;-46
2020/12/06 00:59:35;;;;;;;;;;;5.80;82.60;;;;;;4975587;28;20409;-46
2020/12/06 01:02:05;;;;;;;;;;;5.80;82.50;;;;;;4963805;28;19933;-45
2020/12/06 01:04:32;;;;;;;;;;;5.80;82.50;;;;;;4963581;28;20400;-42
2020/12/06 01:07:00;;;;;;;;;;;5.80;82.60;;;;;;4976164;28;19930;-45
2020/12/06 01:09:27;;;;;;;;;;;5.80;82.60;;;;;;4960050;28;19929;-46
2020/12/06 01:11:55;;;;;;;;;;;5.80;82.60;;;;;;4964430;28;19930;-45
2020/12/06 01:14:22;;;;;;;;;;;5.80;82.60;;;;;;4978857;28;20458;-46
2020/12/06 01:16:50;;;;;;;;;;;5.80;82.60;;;;;;4963738;28;19925;-46
2020/12/06 01:19:18;;;;;;;;;;;5.80;82.60;;;;;;4967010;28;20444;-45
2020/12/06 01:21:49;;;;;;;;;;;5.80;82.60;;;;;;4971712;28;20305;-45
2020/12/06 01:24:16;;;;;;;;;;;5.80;82.60;;;;;;4976439;28;19932;-45
2020/12/06 01:26:45;;;;;;;;;;;5.80;82.60;;;;;;4961140;28;20297;-45
2020/12/06 01:29:12;;;;;;;;;;;5.80;82.60;;;;;;4972870;28;20376;-45
2020/12/06 01:31:44;;;;;;;;;;;5.80;82.70;;;;;;4962828;28;19930;-43
2020/12/06 01:34:12;;;;;;;;;;;5.80;82.70;;;;;;4958404;28;19934;-45
2020/12/06 01:36:44;;;;;;;;;;;5.80;82.70;;;;;;4960730;28;21557;-46
2020/12/06 01:39:11;;;;;;;;;;;5.80;82.70;;;;;;4966137;28;19964;-44
2020/12/06 01:41:38;;;;;;;;;;;5.80;82.70;;;;;;4965941;28;19966;-46
2020/12/06 01:44:06;;;;;;;;;;;5.80;82.70;;;;;;4966890;28;19964;-45
2020/12/06 01:46:36;;;;;;;;;;;5.80;82.70;;;;;;4955928;28;19937;-45
2020/12/06 01:49:04;;;;;;;;;;;5.90;82.60;;;;;;4962020;28;19926;-46
2020/12/06 01:51:35;;;;;;;;;;;5.90;82.60;;;;;;4973087;28;19964;-46
2020/12/06 01:54:06;;;;;;;;;;;5.90;82.70;;;;;;4954009;28;19942;-44
2020/12/06 01:56:51;;;;;;;;;;;5.90;82.70;;;;;;4976973;28;19988;-44
2020/12/06 01:59:18;;;;;;;;;;;5.80;82.60;;;;;;4957950;28;20452;-46
2020/12/06 02:02:12;;;;;;;;;;;5.80;82.80;;;;;;4964615;28;20021;-44
2020/12/06 02:04:40;;;;;;;;;;;5.80;82.80;;;;;;4965610;28;20015;-47
2020/12/06 02:07:08;;;;;;;;;;;5.80;82.80;;;;;;4964059;28;20417;-45
2020/12/06 02:09:36;;;;;;;;;;;5.80;82.80;;;;;;4949066;28;19937;-45
2020/12/06 02:12:09;;;;;;;;;;;5.90;82.90;;;;;;4969256;28;19930;-45
2020/12/06 02:14:36;;;;;;;;;;;5.90;82.90;;;;;;4950491;28;20300;-44
2020/12/06 02:17:05;;;;;;;;;;;5.80;82.90;;;;;;4966463;28;19929;-45
2020/12/06 02:19:32;;;;;;;;;;;5.90;82.90;;;;;;4962587;28;19930;-45
2020/12/06 02:22:00;;;;;;;;;;;5.90;82.90;;;;;;4972525;28;20534;-45
2020/12/06 02:24:27;;;;;;;;;;;5.90;83.00;;;;;;4958323;28;20340;-46
2020/12/06 02:26:54;;;;;;;;;;;5.90;83.00;;;;;;4946191;28;19926;-46
2020/12/06 02:29:21;;;;;;;;;;;5.90;83.00;;;;;;4963031;28;20393;-44
2020/12/06 02:31:48;;;;;;;;;;;5.90;82.90;;;;;;4972084;28;19992;-46
2020/12/06 02:34:15;;;;;;;;;;;5.80;83.00;;;;;;4964698;28;19937;-45
2020/12/06 02:36:42;;;;;;;;;;;5.80;83.10;;;;;;4954160;28;19973;-46
2020/12/06 02:39:10;;;;;;;;;;;5.80;83.00;;;;;;4955376;28;19925;-43
2020/12/06 02:41:38;;;;;;;;;;;5.80;83.10;;;;;;4959061;28;19937;-45
2020/12/06 02:44:06;;;;;;;;;;;5.80;83.30;;;;;;4960984;28;19940;-45
2020/12/06 02:46:34;;;;;;;;;;;5.80;83.30;;;;;;4968309;28;20020;-46
2020/12/06 02:49:02;;;;;;;;;;;5.80;83.10;;;;;;4950692;28;19940;-46
2020/12/06 02:51:29;;;;;;;;;;;5.80;83.10;;;;;;4961591;28;19938;-46
2020/12/06 02:53:57;;;;;;;;;;;5.80;83.10;;;;;;4964137;28;19973;-45
2020/12/06 02:56:25;;;;;;;;;;;5.80;83.00;;;;;;4963014;28;19926;-46
2020/12/06 02:58:52;;;;;;;;;;;5.80;83.00;;;;;;4967777;28;19925;-46
2020/12/06 03:01:19;;;;;;;;;;;5.80;83.00;;;;;;4967368;28;19930;-45
2020/12/06 03:03:46;;;;;;;;;;;5.80;83.20;;;;;;4972532;28;19925;-45
2020/12/06 03:06:14;;;;;;;;;;;5.80;83.40;;;;;;4975991;28;20308;-45
2020/12/06 03:08:41;;;;;;;;;;;5.70;83.40;;;;;;4973053;28;19925;-44
2020/12/06 03:11:09;;;;;;;;;;;5.70;83.40;;;;;;4957792;28;19941;-45
2020/12/06 03:13:36;;;;;;;;;;;5.70;83.50;;;;;;4946165;28;19991;-46
2020/12/06 03:16:04;;;;;;;;;;;5.70;83.50;;;;;;4968187;28;19934;-47
2020/12/06 03:18:34;;;;;;;;;;;5.70;83.40;;;;;;4970401;28;20020;-45
2020/12/06 03:21:02;;;;;;;;;;;5.70;83.40;;;;;;4969991;28;19925;-44
2020/12/06 03:23:29;;;;;;;;;;;5.70;83.40;;;;;;4976603;28;19941;-45
2020/12/06 03:25:57;;;;;;;;;;;5.70;83.50;;;;;;4979191;28;19929;-45
2020/12/06 03:28:24;;;;;;;;;;;5.70;83.40;;;;;;4965304;28;19936;-46
2020/12/06 03:30:52;;;;;;;;;;;5.70;83.50;;;;;;4952238;28;19930;-46
2020/12/06 03:33:19;;;;;;;;;;;5.60;83.40;;;;;;4974726;28;19929;-46
2020/12/06 03:35:47;;;;;;;;;;;5.60;83.60;;;;;;4962510;28;19926;-46
2020/12/06 03:38:14;;;;;;;;;;;5.60;83.40;;;;;;4945395;28;20385;-44
2020/12/06 03:40:41;;;;;;;;;;;5.60;83.50;;;;;;4966992;28;20396;-47
2020/12/06 03:43:09;;;;;;;;;;;5.60;83.50;;;;;;4974178;28;20016;-45
2020/12/06 03:45:36;;;;;;;;;;;5.60;83.60;;;;;;4968847;28;20301;-45
2020/12/06 03:48:03;;;;;;;;;;;5.60;83.70;;;;;;4971417;28;19930;-45
2020/12/06 03:50:33;;;;;;;;;;;5.60;83.70;;;;;;4959316;28;20374;-43
2020/12/06 03:53:01;;;;;;;;;;;5.60;83.70;;;;;;4961274;28;20334;-44
2020/12/06 03:55:28;;;;;;;;;;;5.50;83.70;;;;;;4972520;28;19936;-44
2020/12/06 03:57:55;;;;;;;;;;;5.60;83.80;;;;;;4971567;28;19992;-44
2020/12/06 04:00:22;;;;;;;;;;;5.60;83.70;;;;;;4964113;28;19929;-44
2020/12/06 04:02:50;;;;;;;;;;;5.60;83.60;;;;;;4972331;28;20408;-43
2020/12/06 04:05:21;;;;;;;;;;;5.60;83.70;;;;;;4961874;28;20361;-43
2020/12/06 04:07:49;;;;;;;;;;;5.70;83.70;;;;;;4966152;28;19934;-44
2020/12/06 04:10:17;;;;;;;;;;;5.70;83.60;;;;;;4963084;28;20012;-46
2020/12/06 04:12:45;;;;;;;;;;;5.70;83.60;;;;;;4971265;28;19961;-45
2020/12/06 04:15:12;;;;;;;;;;;5.70;83.70;;;;;;4975502;28;19934;-46
2020/12/06 04:17:40;;;;;;;;;;;5.70;83.70;;;;;;4970519;28;20309;-46
2020/12/06 04:20:07;;;;;;;;;;;5.70;83.60;;;;;;4965669;28;19932;-45
2020/12/06 04:22:36;;;;;;;;;;;5.70;83.60;;;;;;4973036;28;20304;-45
2020/12/06 04:25:04;;;;;;;;;;;5.80;83.60;;;;;;4946892;28;20295;-42
2020/12/06 04:27:31;;;;;;;;;;;5.80;83.50;;;;;;4965993;28;20007;-46
2020/12/06 04:30:01;;;;;;;;;;;5.80;83.60;;;;;;4967109;28;19929;-45
2020/12/06 04:32:29;;;;;;;;;;;5.80;83.60;;;;;;4961290;28;20322;-44
2020/12/06 04:34:56;;;;;;;;;;;5.80;83.50;;;;;;4960126;28;19934;-43
2020/12/06 04:37:25;;;;;;;;;;;5.80;83.50;;;;;;4962565;28;19933;-46
2020/12/06 04:39:53;;;;;;;;;;;5.80;83.50;;;;;;4956534;28;19929;-45
2020/12/06 04:42:20;;;;;;;;;;;5.80;83.50;;;;;;4955699;28;20066;-45
2020/12/06 04:44:48;;;;;;;;;;;5.90;83.60;;;;;;4960116;28;19930;-46
2020/12/06 04:47:18;;;;;;;;;;;5.90;83.60;;;;;;4954671;28;19929;-46
2020/12/06 04:49:47;;;;;;;;;;;5.90;83.70;;;;;;4961000;28;20035;-42
2020/12/06 04:52:15;;;;;;;;;;;5.90;83.70;;;;;;4965057;28;20362;-46
2020/12/06 04:54:46;;;;;;;;;;;5.90;83.80;;;;;;4955448;28;19980;-46
2020/12/06 04:57:13;;;;;;;;;;;5.90;83.80;;;;;;4964970;28;19932;-45
2020/12/06 04:59:42;;;;;;;;;;;5.90;83.80;;;;;;4964914;28;19953;-45
2020/12/06 05:02:10;;;;;;;;;;;5.90;83.80;;;;;;4959516;28;20379;-46
2020/12/06 05:04:40;;;;;;;;;;;5.90;83.80;;;;;;4965438;28;19933;-46
2020/12/06 05:07:08;;;;;;;;;;;5.90;83.80;;;;;;4961110;28;19933;-44
2020/12/06 05:09:36;;;;;;;;;;;6.00;83.90;;;;;;4946002;28;19937;-44
2020/12/06 05:12:04;;;;;;;;;;;5.90;83.80;;;;;;4963929;28;19992;-45
2020/12/06 05:14:32;;;;;;;;;;;6.00;83.90;;;;;;4974704;28;19933;-46
2020/12/06 05:17:00;;;;;;;;;;;6.00;83.90;;;;;;4980609;28;19992;-45
2020/12/06 05:19:28;;;;;;;;;;;6.00;83.90;;;;;;4968170;28;19934;-45
2020/12/06 05:21:56;;;;;;;;;;;6.00;83.80;;;;;;4962153;28;20951;-45
2020/12/06 05:24:23;;;;;;;;;;;6.00;83.90;;;;;;4962315;28;19926;-43
2020/12/06 05:26:51;;;;;;;;;;;6.00;83.90;;;;;;4963900;28;19925;-43
2020/12/06 05:29:18;;;;;;;;;;;6.00;83.90;;;;;;4944735;28;20008;-43
2020/12/06 05:31:46;;;;;;;;;;;6.00;83.90;;;;;;4963194;28;20503;-42
2020/12/06 05:34:13;;;;;;;;;;;6.00;83.90;;;;;;4961001;28;19930;-43
2020/12/06 05:36:41;;;;;;;;;;;6.00;83.90;;;;;;4965230;28;19936;-43
2020/12/06 05:39:09;;;;;;;;;;;6.00;83.90;;;;;;4961133;28;19941;-42
2020/12/06 05:41:36;;;;;;;;;;;6.00;83.90;;;;;;4959846;28;20301;-43
2020/12/06 05:44:05;;;;;;;;;;;6.00;83.90;;;;;;4961319;28;19926;-44
2020/12/06 05:46:34;;;;;;;;;;;6.00;83.90;;;;;;4958604;28;20348;-42
2020/12/06 05:49:05;;;;;;;;;;;6.00;83.80;;;;;;4954740;28;19935;-45
2020/12/06 05:51:33;;;;;;;;;;;6.00;83.80;;;;;;4956555;28;20445;-45
2020/12/06 05:54:01;;;;;;;;;;;6.00;83.80;;;;;;4960758;28;19936;-45
2020/12/06 05:56:31;;;;;;;;;;;6.00;83.80;;;;;;4956307;28;19937;-44
2020/12/06 05:58:59;;;;;;;;;;;6.00;83.80;;;;;;4961432;28;20000;-45
2020/12/06 06:01:27;;;;;;;;;;;6.00;83.80;;;;;;4960504;28;20397;-44
2020/12/06 06:03:59;;;;;;;;;;;6.00;83.80;;;;;;4958886;28;20370;-45
2020/12/06 06:06:33;;;;;;;;;;;6.00;83.80;;;;;;4964621;28;19925;-46
2020/12/06 06:09:01;;;;;;;;;;;6.00;83.80;;;;;;4971726;28;20428;-42
2020/12/06 06:11:29;;;;;;;;;;;6.00;83.80;;;;;;4959601;28;19937;-43
2020/12/06 06:13:57;;;;;;;;;;;6.00;83.80;;;;;;4965915;28;19933;-44
2020/12/06 06:16:25;;;;;;;;;;;6.00;83.80;;;;;;4964308;28;19926;-44
2020/12/06 06:18:53;;;;;;;;;;;6.00;83.80;;;;;;4963498;28;19956;-43
2020/12/06 06:21:26;;;;;;;;;;;6.00;83.80;;;;;;4961135;28;19929;-44
2020/12/06 06:23:54;;;;;;;;;;;6.00;83.90;;;;;;4959683;28;19936;-46
2020/12/06 06:26:25;;;;;;;;;;;6.00;83.80;;;;;;4956033;28;19973;-45
2020/12/06 06:28:53;;;;;;;;;;;5.90;83.80;;;;;;4953966;28;19977;-45
2020/12/06 06:31:21;;;;;;;;;;;5.90;83.80;;;;;;4968212;28;19973;-45
2020/12/06 06:33:49;;;;;;;;;;;5.90;83.90;;;;;;4968431;28;20425;-44
2020/12/06 06:36:19;;;;;;;;;;;6.00;83.90;;;;;;4951020;28;19926;-44
2020/12/06 06:38:48;;;;;;;;;;;5.90;83.80;;;;;;4961245;28;19964;-44
2020/12/06 06:41:15;;;;;;;;;;;5.90;83.90;;;;;;4968691;28;19980;-44
2020/12/06 06:43:43;;;;;;;;;;;5.90;83.90;;;;;;4965108;28;19937;-44
2020/12/06 06:46:16;;;;;;;;;;;6.00;83.80;;;;;;4955781;28;19936;-45
2020/12/06 06:48:48;;;;;;;;;;;6.00;83.80;;;;;;4942977;28;19929;-43
2020/12/06 06:51:22;;;;;;;;;;;6.00;83.90;;;;;;4951341;28;19935;-43
2020/12/06 06:53:50;;;;;;;;;;;6.00;83.90;;;;;;4962168;28;20297;-43
2020/12/06 06:56:18;;;;;;;;;;;6.00;83.90;;;;;;4959692;28;19943;-43
2020/12/06 06:58:46;;;;;;;;;;;6.00;83.80;;;;;;4967532;28;19937;-43
2020/12/06 07:01:23;;;;;;;;;;;6.00;83.90;;;;;;4972466;28;20374;-43
2020/12/06 07:03:51;;;;;;;;;;;5.90;83.80;;;;;;4969787;28;20478;-43
2020/12/06 07:06:37;;;;;;;;;;;5.90;83.90;;;;;;4972673;28;19940;-43
2020/12/06 07:09:06;;;;;;;;;;;6.00;83.80;;;;;;4969625;28;20412;-43
2020/12/06 07:11:34;;;;;;;;;;;6.00;83.80;;;;;;4967666;28;20554;-44
2020/12/06 07:14:01;;;;;;;;;;;6.00;83.70;;;;;;4980927;28;20083;-44
2020/12/06 07:16:29;;;;;;;;;;;6.00;83.70;;;;;;4980653;28;19932;-44
2020/12/06 07:18:56;;;;;;;;;;;6.00;83.80;;;;;;4969868;28;19926;-46
2020/12/06 07:21:29;;;;;;;;;;;6.00;83.80;;;;;;4979756;28;19929;-45
2020/12/06 07:23:57;;;;;;;;;;;6.00;83.80;;;;;;4967921;28;19952;-44
2020/12/06 07:26:25;;;;;;;;;;;6.00;83.80;;;;;;4959390;28;20404;-45
2020/12/06 07:28:54;;;;;;;;;;;6.00;83.90;;;;;;4983374;28;19936;-44
2020/12/06 07:31:25;;;;;;;;;;;6.00;83.80;;;;;;4974603;28;20401;-45
2020/12/06 07:33:52;;;;;;;;;;;6.10;83.80;;;;;;4978345;28;19933;-45
2020/12/06 07:36:24;;;;;;;;;;;6.10;83.80;;;;;;4970347;28;20786;-45
2020/12/06 07:38:51;;;;;;;;;;;6.00;83.80;;;;;;4977148;28;19932;-44
2020/12/06 07:41:18;;;;;;;;;;;6.10;83.90;;;;;;4973859;28;19932;-43
2020/12/06 07:43:51;;;;;;;;;;;6.10;83.90;;;;;;4969075;28;19929;-45
2020/12/06 07:46:20;;;;;;;;;;;6.10;83.90;;;;;;4971620;28;19952;-45
2020/12/06 07:48:48;;;;;;;;;;;6.10;83.90;;;;;;4970222;28;20304;-43
2020/12/06 07:51:25;;;;;;;;;;;6.10;84.00;;;;;;4961029;28;20348;-44
2020/12/06 07:53:53;;;;;;;;;;;6.10;83.90;;;;;;4965209;28;19965;-44
2020/12/06 07:56:21;;;;;;;;;;;6.10;83.90;;;;;;4965309;28;20259;-46
2020/12/06 07:59:09;;;;;;;;;;;6.10;83.80;;;;;;4963093;28;20032;-44
2020/12/06 08:01:37;;;;;;;;;;;6.10;83.80;;;;;;4968019;28;20267;-44
2020/12/06 08:04:24;;;;;;;;;;;6.10;83.70;;;;;;4970713;28;20659;-44
2020/12/06 08:06:53;;;;;;;;;;;6.10;83.80;;;;;;4968031;28;19932;-44
2020/12/06 08:09:22;;;;;;;;;;;6.10;83.90;;;;;;4956101;28;19945;-45
2020/12/06 08:11:51;;;;;;;;;;;6.10;83.90;;;;;;4961087;28;20008;-44
2020/12/06 08:14:19;;;;;;;;;;;6.10;83.90;;;;;;4964621;28;19932;-42
2020/12/06 08:16:59;;;;;;;;;;;6.10;83.90;;;;;;4965638;28;19925;-45
2020/12/06 08:19:27;;;;;;;;;;;6.10;83.90;;;;;;4966203;28;19964;-46
2020/12/06 08:22:01;;;;;;;;;;;6.10;83.90;;;;;;4964652;28;19925;-43
2020/12/06 08:24:30;;;;;;;;;;;6.10;83.90;;;;;;4968847;28;20003;-43
2020/12/06 08:26:59;;;;;;;;;;;6.10;84.00;;;;;;4962848;28;19929;-42
2020/12/06 08:29:42;;;;;;;;;;;6.10;83.90;;;;;;4965831;28;20094;-44
2020/12/06 08:32:11;;;;;;;;;;;6.10;83.90;;;;;;4966910;28;20362;-43
2020/12/06 08:34:40;;;;;;;;;;;6.10;83.80;;;;;;4966548;28;20297;-45
2020/12/06 08:37:17;;;;;;;;;;;6.10;83.70;;;;;;4965565;28;19936;-44
2020/12/06 08:39:46;;;;;;;;;;;6.10;83.80;;;;;;4955405;28;20212;-45
2020/12/06 08:42:14;;;;;;;;;;;6.10;83.80;;;;;;4961923;28;19930;-46
2020/12/06 08:44:52;;;;;;;;;;;6.10;83.80;;;;;;4971703;28;19929;-46
2020/12/06 08:47:19;;;;;;;;;;;6.10;83.90;;;;;;4964990;28;19926;-45
2020/12/06 08:50:06;;;;;;;;;;;6.10;83.80;;;;;;4961276;28;19984;-44
2020/12/06 08:52:33;;;;;;;;;;;6.10;83.80;;;;;;4974457;28;20016;-43
2020/12/06 08:55:03;;;;;;;;;;;6.20;83.80;;;;;;4963772;28;20378;-43
2020/12/06 08:57:30;;;;;;;;;;;6.20;83.80;;;;;;4962664;28;19930;-44
2020/12/06 09:00:03;;;;;;;;;;;6.20;83.70;;;;;;4962958;28;19930;-43
2020/12/06 09:02:31;;;;;;;;;;;6.20;83.70;;;;;;4969651;28;19949;-44
2020/12/06 09:04:58;;;;;;;;;;;6.20;83.60;;;;;;4959634;28;19929;-44
2020/12/06 09:07:25;;;;;;;;;;;6.20;83.60;;;;;;4965501;28;20509;-44
2020/12/06 09:09:53;;;;;;;;;;;6.20;83.70;;;;;;4964374;28;19926;-43
2020/12/06 09:12:23;;;;;;;;;;;6.20;83.70;;;;;;4968344;28;20024;-43
2020/12/06 09:14:51;;;;;;;;;;;6.20;83.70;;;;;;4970845;28;19984;-43
2020/12/06 09:17:18;;;;;;;;;;;6.20;83.70;;;;;;4963480;28;20292;-44
2020/12/06 09:19:46;;;;;;;;;;;6.20;83.80;;;;;;4965224;28;20397;-44
2020/12/06 09:22:13;;;;;;;;;;;6.20;83.60;;;;;;4946603;28;19930;-44
2020/12/06 09:24:41;;;;;;;;;;;6.20;83.70;;;;;;4929985;28;20374;-44
2020/12/06 09:27:08;;;;;;;;;;;6.30;83.70;;;;;;4973882;28;19929;-44
2020/12/06 09:29:36;;;;;;;;;;;6.30;83.70;;;;;;4966810;28;19929;-44
2020/12/06 09:32:03;;;;;;;;;;;6.30;83.70;;;;;;4964468;28;19933;-44
2020/12/06 09:34:31;;;;;;;;;;;6.30;83.90;;;;;;4971076;28;19929;-43
2020/12/06 09:36:58;;;;;;;;;;;6.30;83.90;;;;;;4958162;28;19933;-43
2020/12/06 09:39:26;;;;;;;;;;;6.30;83.70;;;;;;4964075;28;19934;-43
2020/12/06 09:41:53;;;;;;;;;;;6.40;83.60;;;;;;4961534;28;19932;-43
2020/12/06 09:44:22;;;;;;;;;;;6.40;83.50;;;;;;4951578;28;19932;-44
2020/12/06 09:46:50;;;;;;;;;;;6.40;83.40;;;;;;4968139;28;19930;-43
2020/12/06 09:49:18;;;;;;;;;;;6.30;83.50;;;;;;4958576;28;19926;-44
2020/12/06 09:51:45;;;;;;;;;;;6.40;83.50;;;;;;4965006;28;20392;-43
2020/12/06 09:54:13;;;;;;;;;;;6.40;83.60;;;;;;4962169;28;19929;-44
2020/12/06 09:56:40;;;;;;;;;;;6.40;83.60;;;;;;4970147;28;19960;-43
2020/12/06 09:59:10;;;;;;;;;;;6.40;83.30;;;;;;4977792;28;19933;-44
2020/12/06 10:01:39;;;;;;;;;;;6.40;83.20;;;;;;4958978;28;19929;-44
2020/12/06 10:04:06;;;;;;;;;;;6.40;83.30;;;;;;4954497;28;19926;-44
2020/12/06 10:06:33;;;;;;;;;;;6.40;83.20;;;;;;4963884;28;19926;-44
2020/12/06 10:09:02;;;;;;;;;;;6.40;83.20;;;;;;4966830;28;19930;-44
2020/12/06 10:11:29;;;;;;;;;;;6.40;83.10;;;;;;4973193;28;20260;-44
2020/12/06 10:13:56;;;;;;;;;;;6.40;83.10;;;;;;4971087;28;19929;-44
2020/12/06 10:16:24;;;;;;;;;;;6.40;83.10;;;;;;4959353;28;19933;-44
2020/12/06 10:18:54;;;;;;;;;;;6.40;83.10;;;;;;4965113;28;20016;-43
2020/12/06 10:21:22;;;;;;;;;;;6.40;83.20;;;;;;4957788;28;19925;-44
2020/12/06 10:23:49;;;;;;;;;;;6.50;83.10;;;;;;4964478;28;19926;-44
2020/12/06 10:26:17;;;;;;;;;;;6.50;83.00;;;;;;4976241;28;19953;-43
2020/12/06 10:28:44;;;;;;;;;;;6.50;83.10;;;;;;4974159;28;19937;-42
2020/12/06 10:31:11;;;;;;;;;;;6.50;83.10;;;;;;4970012;28;19933;-43
2020/12/06 10:33:38;;;;;;;;;;;6.50;83.10;;;;;;4971239;28;19937;-42
2020/12/06 10:36:05;;;;;;;;;;;6.50;83.20;;;;;;4979095;28;19929;-44
2020/12/06 10:38:32;;;;;;;;;;;6.50;83.10;;;;;;4969192;28;20449;-42
2020/12/06 10:40:59;;;;;;;;;;;6.50;83.10;;;;;;4956289;28;20023;-44
2020/12/06 10:43:26;;;;;;;;;;;6.50;83.20;;;;;;4957210;28;19926;-44
2020/12/06 10:45:53;;;;;;;;;;;6.50;83.30;;;;;;4977297;28;20437;-44
2020/12/06 10:48:22;;;;;;;;;;;6.60;83.30;;;;;;4947207;28;19964;-43
2020/12/06 10:50:50;;;;;;;;;;;6.60;83.20;;;;;;4973931;28;20013;-43
2020/12/06 10:53:17;;;;;;;;;;;6.60;83.20;;;;;;4969478;28;20393;-43
2020/12/06 10:55:44;;;;;;;;;;;6.60;83.10;;;;;;4957671;28;20629;-44
2020/12/06 10:58:11;;;;;;;;;;;6.60;82.90;;;;;;4975234;28;19933;-44
2020/12/06 11:00:40;;;;;;;;;;;6.60;82.80;;;;;;4973247;28;19932;-44
2020/12/06 11:03:07;;;;;;;;;;;6.60;82.60;;;;;;4973220;28;19961;-43
2020/12/06 11:05:34;;;;;;;;;;;6.70;82.50;;;;;;4976604;28;20028;-44
2020/12/06 11:08:01;;;;;;;;;;;6.70;82.60;;;;;;4975302;28;20286;-43
2020/12/06 11:10:28;;;;;;;;;;;6.70;82.80;;;;;;4975399;28;19961;-43
2020/12/06 11:12:56;;;;;;;;;;;6.70;82.70;;;;;;4957342;28;19947;-43
2020/12/06 11:15:23;;;;;;;;;;;6.70;82.80;;;;;;4948410;28;20378;-43
2020/12/06 11:18:06;;;;;;;;;;;6.70;82.80;;;;;;4976864;28;19926;-44
2020/12/06 11:20:33;;;;;;;;;;;6.70;83.00;;;;;;4977798;28;19933;-44
2020/12/06 11:23:00;;;;;;;;;;;6.70;82.80;;;;;;4981273;28;20383;-43
2020/12/06 11:25:27;;;;;;;;;;;6.70;82.80;;;;;;4977007;28;19925;-43
2020/12/06 11:27:54;;;;;;;;;;;6.60;82.80;;;;;;4977767;28;19932;-43
2020/12/06 11:30:22;;;;;;;;;;;6.60;83.00;;;;;;4956106;28;20019;-44
2020/12/06 11:32:49;;;;;;;;;;;6.60;83.20;;;;;;4975518;28;19933;-44
2020/12/06 11:35:16;;;;;;;;;;;6.60;83.30;;;;;;4961557;28;19934;-44
2020/12/06 11:37:46;;;;;;;;;;;6.60;83.20;;;;;;4961222;28;19929;-43
2020/12/06 11:40:13;;;;;;;;;;;6.70;83.00;;;;;;4967868;28;19929;-44
2020/12/06 11:42:41;;;;;;;;;;;6.70;83.10;;;;;;4968213;28;19934;-43
2020/12/06 11:45:10;;;;;;;;;;;6.80;83.20;;;;;;4940451;28;19925;-43
2020/12/06 11:47:38;;;;;;;;;;;6.80;83.20;;;;;;4968595;28;19929;-43
2020/12/06 11:50:06;;;;;;;;;;;6.80;83.20;;;;;;4965296;28;20024;-43
2020/12/06 11:52:33;;;;;;;;;;;6.80;83.10;;;;;;4962912;28;19929;-44
2020/12/06 11:55:01;;;;;;;;;;;6.80;83.00;;;;;;4944509;28;20502;-43
2020/12/06 11:57:29;;;;;;;;;;;6.90;83.00;;;;;;4959616;28;20436;-44
2020/12/06 11:59:57;;;;;;;;;;;6.90;82.90;;;;;;4960502;28;19981;-43
2020/12/06 12:02:24;;;;;;;;;;;6.90;82.80;;;;;;4967268;28;20329;-44
2020/12/06 12:04:51;;;;;;;;;;;6.90;82.60;;;;;;4963664;28;19933;-43
2020/12/06 12:07:19;;;;;;;;;;;6.80;82.60;;;;;;4971372;28;19961;-44
2020/12/06 12:09:46;;;;;;;;;;;6.90;82.40;;;;;;4964277;28;20358;-43
2020/12/06 12:12:13;;;;;;;;;;;6.90;82.50;;;;;;4968536;28;19973;-43
2020/12/06 12:14:40;;;;;;;;;;;6.80;82.40;;;;;;4962834;28;19933;-43
2020/12/06 12:17:07;;;;;;;;;;;6.80;82.40;;;;;;4958216;28;19969;-43
2020/12/06 12:19:35;;;;;;;;;;;6.80;82.20;;;;;;4958311;28;19933;-43
2020/12/06 12:22:03;;;;;;;;;;;6.90;82.20;;;;;;4959330;28;19971;-43
2020/12/06 12:24:30;;;;;;;;;;;6.90;82.20;;;;;;4969990;28;20364;-43
2020/12/06 12:26:59;;;;;;;;;;;6.90;82.10;;;;;;4962394;28;20552;-43
2020/12/06 12:29:27;;;;;;;;;;;6.90;82.10;;;;;;4941580;28;20669;-43
2020/12/06 12:31:55;;;;;;;;;;;6.90;82.10;;;;;;4964282;28;19964;-43
2020/12/06 12:34:22;;;;;;;;;;;6.90;82.00;;;;;;4960559;28;20289;-43
2020/12/06 12:36:49;;;;;;;;;;;6.90;82.10;;;;;;4970690;28;20412;-42
2020/12/06 12:39:17;;;;;;;;;;;6.90;82.10;;;;;;4970624;28;19949;-43
2020/12/06 12:41:44;;;;;;;;;;;6.90;82.10;;;;;;4966410;28;19929;-43
2020/12/06 12:44:11;;;;;;;;;;;6.90;82.10;;;;;;4950453;28;19933;-43
2020/12/06 12:46:38;;;;;;;;;;;6.90;82.00;;;;;;4960142;28;19934;-43
2020/12/06 12:49:05;;;;;;;;;;;6.80;82.00;;;;;;4969549;28;19936;-42
2020/12/06 12:51:33;;;;;;;;;;;6.80;82.30;;;;;;4972246;28;19933;-43
2020/12/06 12:54:02;;;;;;;;;;;6.80;82.20;;;;;;4956645;28;20435;-43
2020/12/06 12:56:29;;;;;;;;;;;6.90;82.30;;;;;;4969737;28;20076;-43
2020/12/06 12:58:57;;;;;;;;;;;6.90;82.30;;;;;;4965640;28;19937;-43
2020/12/06 13:01:25;;;;;;;;;;;6.90;82.20;;;;;;4963952;28;19941;-43
2020/12/06 13:03:52;;;;;;;;;;;6.90;82.30;;;;;;4959893;28;19926;-43
2020/12/06 13:06:21;;;;;;;;;;;7.00;82.30;;;;;;4967203;28;20304;-43
2020/12/06 13:08:49;;;;;;;;;;;7.00;82.40;;;;;;4973202;28;19925;-42
2020/12/06 13:11:27;;;;;;;;;;;7.00;82.20;;;;;;4943930;28;19946;-43
2020/12/06 13:14:00;;;;;;;;;;;7.00;82.40;;;;;;4958565;28;20019;-44
2020/12/06 13:16:27;;;;;;;;;;;7.00;82.40;;;;;;4968163;28;19964;-43
2020/12/06 13:18:56;;;;;;;;;;;7.10;82.50;;;;;;4973263;28;20282;-43
2020/12/06 13:21:23;;;;;;;;;;;7.10;82.40;;;;;;4966399;28;19926;-43
2020/12/06 13:23:51;;;;;;;;;;;7.10;82.20;;;;;;4969373;28;19933;-43
2020/12/06 13:26:19;;;;;;;;;;;7.10;82.30;;;;;;4968176;28;20476;-43
2020/12/06 13:28:47;;;;;;;;;;;7.00;82.20;;;;;;4968620;28;19965;-43
2020/12/06 13:31:18;;;;;;;;;;;7.10;82.30;;;;;;4959863;28;19932;-43
2020/12/06 13:33:46;;;;;;;;;;;7.00;82.30;;;;;;4949101;28;19940;-43
2020/12/06 13:36:20;;;;;;;;;;;7.00;82.30;;;;;;4961488;28;20282;-42
2020/12/06 13:38:49;;;;;;;;;;;7.10;82.20;;;;;;4955832;28;20388;-43
2020/12/06 13:41:17;;;;;;;;;;;7.10;82.20;;;;;;4964778;28;20299;-42
2020/12/06 13:43:47;;;;;;;;;;;7.10;82.10;;;;;;4964639;28;19926;-44
2020/12/06 13:46:20;;;;;;;;;;;7.10;82.00;;;;;;4967736;28;19934;-43
2020/12/06 13:48:49;;;;;;;;;;;7.20;81.80;;;;;;4959492;28;20357;-44
2020/12/06 13:51:16;;;;;;;;;;;7.20;81.80;;;;;;4966568;28;19933;-44
2020/12/06 13:53:44;;;;;;;;;;;7.10;81.70;;;;;;4969399;28;19965;-43
2020/12/06 13:56:11;;;;;;;;;;;7.10;81.90;;;;;;4962273;28;19930;-44
2020/12/06 13:58:39;;;;;;;;;;;7.10;81.80;;;;;;4945830;28;19945;-42
2020/12/06 14:01:07;;;;;;;;;;;7.10;81.70;;;;;;4957574;28;20289;-44
2020/12/06 14:03:37;;;;;;;;;;;7.10;81.80;;;;;;4955708;28;19929;-42
2020/12/06 14:06:05;;;;;;;;;;;7.10;81.60;;;;;;4954499;28;21360;-43
2020/12/06 14:08:32;;;;;;;;;;;7.10;81.50;;;;;;4945038;28;20436;-44
2020/12/06 14:11:00;;;;;;;;;;;7.20;81.50;;;;;;4945266;28;19926;-43
2020/12/06 14:13:28;;;;;;;;;;;7.10;81.60;;;;;;4952968;28;19925;-44
2020/12/06 14:15:56;;;;;;;;;;;7.20;81.60;;;;;;4948428;28;20416;-44
2020/12/06 14:18:23;;;;;;;;;;;7.20;81.60;;;;;;4958622;28;19929;-43
2020/12/06 14:20:50;;;;;;;;;;;7.20;81.50;;;;;;4964276;28;19930;-41
2020/12/06 14:23:17;;;;;;;;;;;7.20;81.30;;;;;;4955274;28;19934;-41
2020/12/06 14:25:44;;;;;;;;;;;7.20;81.30;;;;;;4952925;28;19937;-44
2020/12/06 14:28:11;;;;;;;;;;;7.20;81.30;;;;;;4961985;28;19929;-43
2020/12/06 14:30:39;;;;;;;;;;;7.20;81.30;;;;;;4957464;28;19936;-44
2020/12/06 14:33:20;;;;;;;;;;;7.20;81.30;;;;;;4962708;28;20879;-43
2020/12/06 14:35:48;;;;;;;;;;;7.20;81.20;;;;;;4957499;28;19965;-43
2020/12/06 14:38:15;;;;;;;;;;;7.10;81.20;;;;;;4961138;28;19938;-43